createdAt,value
2019-04-22T00:00:59.503Z,101931.59
2019-04-22T00:03:39.861Z,101933.97
2019-04-22T00:06:29.325Z,101927.72
2019-04-22T00:08:55.528Z,101929.54
2019-04-22T00:11:29.300Z,101927.91
2019-04-22T00:13:56.973Z,101934.01
2019-04-22T00:16:35.990Z,101928.98
2019-04-22T00:21:33.284Z,101926.71
2019-04-22T00:23:59.069Z,101922.16
2019-04-22T00:29:12.653Z,101916.97
2019-04-22T00:31:38.172Z,101915.03
2019-04-22T00:34:06.827Z,101911.36
2019-04-22T00:36:35.262Z,101908.97
2019-04-22T00:39:07.213Z,101909.62
2019-04-22T00:41:43.399Z,101906.90
2019-04-22T00:44:12.285Z,101908.37
2019-04-22T00:46:39.401Z,101914.13
2019-04-22T00:49:52.904Z,101907.78
2019-04-22T00:51:48.235Z,101910.55
2019-04-22T00:54:08.610Z,101914.27
2019-04-22T00:56:42.149Z,101911.45
2019-04-22T00:59:14.381Z,101911.73
2019-04-22T01:01:36.971Z,101915.03
2019-04-22T01:06:38.519Z,101917.44
2019-04-22T01:09:10.915Z,101911.26
2019-04-22T01:11:37.591Z,101908.59
2019-04-22T01:14:15.754Z,101909.33
2019-04-22T01:16:42.684Z,101918.76
2019-04-22T01:19:16.625Z,101922.57
2019-04-22T01:24:09.159Z,101926.52
2019-04-22T01:26:38.904Z,101916.00
2019-04-22T01:29:05.364Z,101916.00
2019-04-22T01:31:29.351Z,101915.91
2019-04-22T01:34:10.024Z,101911.00
2019-04-22T01:36:51.483Z,101911.00
2019-04-22T01:39:36.298Z,101920.28
2019-04-22T01:41:55.192Z,101920.28
2019-04-22T01:46:49.428Z,101912.80
2019-04-22T01:49:25.840Z,101916.19
2019-04-22T01:52:01.467Z,101916.45
2019-04-22T01:54:29.916Z,101913.34
2019-04-22T01:56:53.973Z,101913.34
2019-04-22T01:59:15.682Z,101907.13
2019-04-22T02:04:30.148Z,101904.66
2019-04-22T02:07:00.153Z,101905.80
2019-04-22T02:09:31.686Z,101904.31
2019-04-22T02:12:00.184Z,101905.45
2019-04-22T02:14:31.578Z,101899.89
2019-04-22T02:17:06.488Z,101906.39
2019-04-22T02:19:30.744Z,101906.39
2019-04-22T02:21:56.193Z,101905.67
2019-04-22T02:24:35.291Z,101901.55
2019-04-22T02:26:54.591Z,101898.01
2019-04-22T02:29:29.988Z,101900.92
2019-04-22T02:34:40.061Z,101889.16
2019-04-22T02:37:03.147Z,101887.87
2019-04-22T02:42:10.747Z,101886.52
2019-04-22T02:44:40.851Z,101882.97
2019-04-22T02:49:37.316Z,101877.98
2019-04-22T02:52:20.478Z,101870.51
2019-04-22T02:57:22.774Z,101865.52
2019-04-22T02:59:50.248Z,101861.97
2019-04-22T03:02:14.373Z,101859.20
2019-04-22T03:04:44.011Z,101851.73
2019-04-22T03:07:10.837Z,101854.93
2019-04-22T03:09:38.535Z,101849.06
2019-04-22T03:12:29.074Z,101846.63
2019-04-22T03:17:20.661Z,101848.62
2019-04-22T03:22:30.155Z,101844.03
2019-04-22T03:24:54.247Z,101850.61
2019-04-22T03:27:15.751Z,101849.77
2019-04-22T03:37:49.147Z,101860.78
2019-04-22T03:40:18.258Z,101856.05
2019-04-22T03:42:48.577Z,101852.09
2019-04-22T03:45:19.302Z,101860.61
2019-04-22T03:47:41.209Z,101858.34
2019-04-22T03:50:22.661Z,101863.48
2019-04-22T03:52:43.065Z,101856.48
2019-04-22T03:57:55.937Z,101857.37
2019-04-22T04:05:32.249Z,101850.64
2019-04-22T04:07:49.097Z,101857.63
2019-04-22T04:10:19.501Z,101857.33
2019-04-22T04:20:28.621Z,101865.97
2019-04-22T04:30:26.474Z,101859.63
2019-04-22T04:33:05.141Z,101857.63
2019-04-22T04:35:28.081Z,101860.36
2019-04-22T04:37:55.652Z,101865.05
2019-04-22T04:40:23.174Z,101867.16
2019-04-22T04:42:52.415Z,101869.17
2019-04-22T04:45:38.226Z,101864.14
2019-04-22T04:50:17.723Z,101868.41
2019-04-22T04:55:23.085Z,101868.35
2019-04-22T05:05:18.196Z,101866.48
2019-04-22T05:15:18.467Z,101872.98
2019-04-22T05:17:55.506Z,101869.52
2019-04-22T05:20:21.495Z,101869.52
2019-04-22T05:22:44.681Z,101880.28
2019-04-22T05:25:17.824Z,101872.33
2019-04-22T05:32:47.601Z,101869.05
2019-04-22T05:35:14.470Z,101872.89
2019-04-22T05:37:50.605Z,101875.84
2019-04-22T05:40:22.001Z,101877.52
2019-04-22T05:42:46.322Z,101876.59
2019-04-22T05:45:17.631Z,101883.18
2019-04-22T05:47:46.170Z,101886.19
2019-04-22T05:52:49.821Z,101880.23
2019-04-22T05:55:25.151Z,101884.13
2019-04-22T05:57:51.181Z,101881.16
2019-04-22T06:00:25.620Z,101886.02
2019-04-22T06:05:28.479Z,101879.31
2019-04-22T06:07:52.500Z,101886.38
2019-04-22T06:10:31.072Z,101887.42
2019-04-22T06:12:55.312Z,101893.72
2019-04-22T06:15:23.396Z,101896.50
2019-04-22T06:18:07.712Z,101895.53
2019-04-22T06:20:32.568Z,101894.91
2019-04-22T06:23:00.289Z,101890.98
2019-04-22T06:25:40.669Z,101889.59
2019-04-22T06:28:04.888Z,101889.05
2019-04-22T06:30:34.639Z,101887.50
2019-04-22T06:33:00.835Z,101888.23
2019-04-22T06:38:22.460Z,101892.55
2019-04-22T06:43:10.233Z,101894.06
2019-04-22T06:45:33.772Z,101899.37
2019-04-22T06:48:08.388Z,101903.45
2019-04-22T06:50:43.463Z,101905.37
2019-04-22T06:58:07.657Z,101901.92
2019-04-22T07:00:36.644Z,101907.25
2019-04-22T07:03:30.156Z,101907.83
2019-04-22T07:05:42.040Z,101903.61
2019-04-22T07:08:30.351Z,101905.40
2019-04-22T07:10:50.634Z,101902.94
2019-04-22T07:13:11.650Z,101902.06
2019-04-22T07:18:11.124Z,101896.39
2019-04-22T07:20:48.067Z,101896.27
2019-04-22T07:23:13.615Z,101900.48
2019-04-22T07:25:41.387Z,101905.94
2019-04-22T07:28:14.276Z,101903.53
2019-04-22T07:30:41.039Z,101900.72
2019-04-22T07:33:22.546Z,101905.34
2019-04-22T07:38:18.646Z,101896.26
2019-04-22T07:40:43.316Z,101899.91
2019-04-22T07:43:19.996Z,101905.33
2019-04-22T07:45:44.243Z,101901.57
2019-04-22T07:50:55.724Z,101904.02
2019-04-22T07:53:14.373Z,101909.81
2019-04-22T07:55:45.360Z,101905.63
2019-04-22T07:58:18.646Z,101907.55
2019-04-22T08:00:53.549Z,101907.27
2019-04-22T08:03:20.874Z,101903.06
2019-04-22T08:06:02.934Z,101898.41
2019-04-22T08:08:26.050Z,101902.45
2019-04-22T08:10:52.290Z,101899.11
2019-04-22T08:13:24.793Z,101897.03
2019-04-22T08:15:53.653Z,101898.02
2019-04-22T08:18:22.146Z,101895.14
2019-04-22T08:20:55.381Z,101888.70
2019-04-22T08:23:24.494Z,101886.60
2019-04-22T08:25:56.761Z,101884.54
2019-04-22T08:28:25.618Z,101896.41
2019-04-22T08:30:56.671Z,101897.41
2019-04-22T08:33:29.077Z,101887.94
2019-04-22T08:36:06.890Z,101888.05
2019-04-22T08:38:35.377Z,101885.08
2019-04-22T08:41:22.999Z,101894.77
2019-04-22T08:46:17.070Z,101885.32
2019-04-22T08:48:44.500Z,101892.39
2019-04-22T08:51:18.509Z,101889.81
2019-04-22T08:53:48.520Z,101888.14
2019-04-22T08:56:29.898Z,101874.69
2019-04-22T08:58:50.848Z,101885.25
2019-04-22T09:01:17.442Z,101883.16
2019-04-22T09:03:47.098Z,101882.38
2019-04-22T09:06:22.382Z,101879.42
2019-04-22T09:08:48.726Z,101882.53
2019-04-22T09:11:19.858Z,101879.97
2019-04-22T09:13:50.474Z,101884.39
2019-04-22T09:16:19.336Z,101877.47
2019-04-22T09:18:51.080Z,101870.10
2019-04-22T09:23:54.047Z,101869.36
2019-04-22T09:26:23.908Z,101872.02
2019-04-22T09:28:54.524Z,101862.52
2019-04-22T09:31:19.645Z,101871.31
2019-04-22T09:33:50.406Z,101868.34
2019-04-22T09:38:50.637Z,101863.63
2019-04-22T09:41:20.241Z,101865.85
2019-04-22T09:43:58.306Z,101868.48
2019-04-22T09:46:32.777Z,101869.37
2019-04-22T09:49:00.379Z,101875.48
2019-04-22T09:51:26.873Z,101866.30
2019-04-22T09:54:00.988Z,101862.84
2019-04-22T09:58:58.509Z,101863.41
2019-04-22T10:01:30.754Z,101873.89
2019-04-22T10:04:00.969Z,101865.17
2019-04-22T10:09:12.739Z,101858.22
2019-04-22T10:14:12.437Z,101860.91
2019-04-22T10:16:35.411Z,101856.53
2019-04-22T10:18:59.278Z,101854.80
2019-04-22T10:26:33.513Z,101840.02
2019-04-22T10:29:09.092Z,101840.49
2019-04-22T10:33:53.251Z,101845.80
2019-04-22T10:36:07.879Z,101841.89
2019-04-22T10:38:36.802Z,101836.64
2019-04-22T10:41:05.380Z,101836.67
2019-04-22T10:43:34.940Z,101840.63
2019-04-22T10:46:04.142Z,101826.20
2019-04-22T10:48:34.554Z,101828.41
2019-04-22T10:51:04.580Z,101824.91
2019-04-22T10:53:33.466Z,101820.53
2019-04-22T10:56:07.071Z,101810.50
2019-04-22T10:58:42.495Z,101806.58
2019-04-22T11:01:13.674Z,101812.27
2019-04-22T11:03:43.321Z,101799.20
2019-04-22T11:06:11.911Z,101793.05
2019-04-22T11:08:48.651Z,101792.63
2019-04-22T11:11:29.310Z,101798.78
2019-04-22T11:13:42.128Z,101793.97
2019-04-22T11:16:11.645Z,101789.16
2019-04-22T11:18:41.256Z,101783.89
2019-04-22T11:21:09.892Z,101780.84
2019-04-22T11:23:40.686Z,101779.09
2019-04-22T11:26:15.510Z,101782.17
2019-04-22T11:28:45.487Z,101781.70
2019-04-22T11:31:14.706Z,101775.56
2019-04-22T11:33:44.759Z,101779.07
2019-04-22T11:36:13.707Z,101779.49
2019-04-22T11:38:48.617Z,101772.94
2019-04-22T11:41:14.682Z,101772.04
2019-04-22T11:43:45.158Z,101769.85
2019-04-22T11:46:15.541Z,101768.95
2019-04-22T11:48:45.572Z,101764.58
2019-04-22T11:51:15.845Z,101773.34
2019-04-22T11:53:45.094Z,101771.16
2019-04-22T11:56:13.633Z,101767.20
2019-04-22T11:58:42.657Z,101770.67
2019-04-22T12:01:12.789Z,101760.59
2019-04-22T12:03:41.973Z,101756.19
2019-04-22T12:06:10.659Z,101748.27
2019-04-22T12:08:39.692Z,101754.41
2019-04-22T12:11:09.802Z,101752.20
2019-04-22T12:13:39.942Z,101751.30
2019-04-22T12:16:09.398Z,101745.57
2019-04-22T12:18:39.611Z,101741.58
2019-04-22T12:21:08.946Z,101740.67
2019-04-22T12:23:39.077Z,101741.07
2019-04-22T12:26:13.101Z,101740.17
2019-04-22T12:28:39.354Z,101744.55
2019-04-22T12:31:09.250Z,101734.45
2019-04-22T12:33:39.291Z,101732.23
2019-04-22T12:36:10.880Z,101724.31
2019-04-22T12:38:39.993Z,101730.89
2019-04-22T12:41:11.677Z,101726.47
2019-04-22T12:43:39.056Z,101715.50
2019-04-22T12:46:07.974Z,101712.39
2019-04-22T12:48:37.088Z,101711.01
2019-04-22T12:51:07.031Z,101717.08
2019-04-22T12:53:36.176Z,101702.59
2019-04-22T12:56:05.111Z,101700.80
2019-04-22T12:58:33.907Z,101698.58
2019-04-22T13:01:03.299Z,101699.02
2019-04-22T13:03:32.128Z,101695.04
2019-04-22T13:06:01.607Z,101691.09
2019-04-22T13:08:31.618Z,101687.10
2019-04-22T13:11:06.806Z,101687.52
2019-04-22T13:13:31.326Z,101691.88
2019-04-22T13:16:00.054Z,101682.62
2019-04-22T13:18:37.445Z,101679.50
2019-04-22T13:21:00.216Z,101681.27
2019-04-22T13:23:29.843Z,101679.04
2019-04-22T13:25:59.069Z,101686.50
2019-04-22T13:28:29.176Z,101669.41
2019-04-22T13:31:01.676Z,101667.19
2019-04-22T13:33:28.702Z,101675.55
2019-04-22T13:35:57.646Z,101661.92
2019-04-22T13:38:27.004Z,101654.02
2019-04-22T13:41:09.750Z,101654.02
2019-04-22T13:43:27.018Z,101649.60
2019-04-22T13:45:56.201Z,101647.38
2019-04-22T13:48:46.283Z,101646.89
2019-04-22T13:51:32.461Z,101643.80
2019-04-22T13:54:14.395Z,101646.80
2019-04-22T13:56:13.667Z,101641.94
2019-04-22T13:58:40.977Z,101637.11
2019-04-22T14:00:58.576Z,101638.84
2019-04-22T14:03:36.094Z,101626.52
2019-04-22T14:06:06.880Z,101631.30
2019-04-22T14:08:35.459Z,101624.66
2019-04-22T14:11:16.873Z,101629.05
2019-04-22T14:13:34.319Z,101622.87
2019-04-22T14:16:02.836Z,101625.50
2019-04-22T14:18:32.754Z,101624.14
2019-04-22T14:21:02.825Z,101616.68
2019-04-22T14:23:32.945Z,101619.31
2019-04-22T14:26:01.887Z,101611.83
2019-04-22T14:28:31.262Z,101614.05
2019-04-22T14:31:00.574Z,101608.37
2019-04-22T14:33:30.072Z,101613.64
2019-04-22T14:36:00.477Z,101618.91
2019-04-22T14:38:30.261Z,101608.36
2019-04-22T14:41:00.547Z,101607.50
2019-04-22T14:44:00.165Z,101607.95
2019-04-22T14:46:39.006Z,101612.37
2019-04-22T14:48:49.654Z,101608.89
2019-04-22T14:51:15.998Z,101607.16
2019-04-22T14:53:44.936Z,101605.84
2019-04-22T14:56:02.156Z,101600.16
2019-04-22T14:58:31.178Z,101602.81
2019-04-22T15:01:01.212Z,101608.98
2019-04-22T15:03:41.900Z,101606.34
2019-04-22T15:06:08.522Z,101597.09
2019-04-22T15:08:37.241Z,101594.89
2019-04-22T15:11:06.331Z,101604.13
2019-04-22T15:13:35.640Z,101598.41
2019-04-22T15:16:11.974Z,101595.35
2019-04-22T15:18:47.664Z,101594.91
2019-04-22T15:21:18.683Z,101590.13
2019-04-22T15:23:48.424Z,101592.77
2019-04-22T15:26:17.184Z,101600.27
2019-04-22T15:28:49.380Z,101590.19
2019-04-22T15:31:17.900Z,101595.91
2019-04-22T15:33:50.229Z,101601.18
2019-04-22T15:36:18.086Z,101599.00
2019-04-22T15:38:47.198Z,101599.95
2019-04-22T15:41:16.689Z,101604.81
2019-04-22T15:43:45.723Z,101603.09
2019-04-22T15:46:15.805Z,101603.13
2019-04-22T15:48:44.494Z,101593.09
2019-04-22T15:51:13.183Z,101595.32
2019-04-22T15:53:41.689Z,101598.94
2019-04-22T15:56:10.547Z,101600.30
2019-04-22T15:58:39.631Z,101605.19
2019-04-22T16:01:16.196Z,101603.95
2019-04-22T16:03:38.737Z,101603.95
2019-04-22T16:06:08.312Z,101607.08
2019-04-22T16:08:39.127Z,101603.62
2019-04-22T16:11:07.205Z,101604.52
2019-04-22T16:13:38.211Z,101605.87
2019-04-22T16:16:06.883Z,101602.81
2019-04-22T16:18:36.164Z,101601.98
2019-04-22T16:21:05.009Z,101610.78
2019-04-22T16:23:52.076Z,101603.33
2019-04-22T16:26:22.420Z,101603.81
2019-04-22T16:28:53.733Z,101606.03
2019-04-22T16:31:21.829Z,101603.02
2019-04-22T16:33:56.316Z,101602.59
2019-04-22T16:36:31.058Z,101597.78
2019-04-22T16:39:00.558Z,101602.14
2019-04-22T16:41:30.654Z,101604.75
2019-04-22T16:44:00.769Z,101605.52
2019-04-22T16:46:30.020Z,101607.56
2019-04-22T16:49:01.557Z,101604.73
2019-04-22T16:51:30.166Z,101598.36
2019-04-22T16:54:00.012Z,101603.81
2019-04-22T16:56:32.196Z,101606.71
2019-04-22T16:59:00.945Z,101598.69
2019-04-22T17:01:43.299Z,101607.75
2019-04-22T17:04:20.785Z,101598.36
2019-04-22T17:06:51.049Z,101602.66
2019-04-22T17:09:21.519Z,101598.18
2019-04-22T17:11:52.007Z,101602.94
2019-04-22T17:14:30.495Z,101605.53
2019-04-22T17:16:52.846Z,101604.27
2019-04-22T17:19:21.785Z,101612.25
2019-04-22T17:21:51.386Z,101606.68
2019-04-22T17:24:21.530Z,101607.76
2019-04-22T17:26:56.592Z,101615.48
2019-04-22T17:29:26.329Z,101616.31
2019-04-22T17:32:00.441Z,101621.44
2019-04-22T17:34:25.554Z,101588.45
2019-04-22T17:36:55.270Z,101610.94
2019-04-22T17:39:35.995Z,101616.35
2019-04-22T17:42:14.061Z,101621.77
2019-04-22T17:44:48.391Z,101617.02
2019-04-22T17:47:29.752Z,101617.53
2019-04-22T17:50:08.646Z,101624.13
2019-04-22T17:52:59.583Z,101628.12
2019-04-22T17:54:58.764Z,101625.94
2019-04-22T17:57:32.522Z,101624.17
2019-04-22T18:00:01.539Z,101630.73
2019-04-22T18:02:26.611Z,101630.73
2019-04-22T18:04:52.026Z,101632.03
2019-04-22T18:07:49.326Z,101629.38
2019-04-22T18:10:27.110Z,101631.55
2019-04-22T18:12:44.167Z,101634.17
2019-04-22T18:15:09.986Z,101642.44
2019-04-22T18:17:41.399Z,101641.03
2019-04-22T18:20:07.134Z,101643.64
2019-04-22T18:22:33.098Z,101644.02
2019-04-22T18:25:00.919Z,101647.05
2019-04-22T18:27:48.467Z,101648.74
2019-04-22T18:30:04.045Z,101652.20
2019-04-22T18:32:38.037Z,101650.83
2019-04-22T18:35:09.807Z,101648.58
2019-04-22T18:37:46.881Z,101654.66
2019-04-22T18:40:08.556Z,101656.34
2019-04-22T18:42:46.284Z,101655.39
2019-04-22T18:45:29.632Z,101657.94
2019-04-22T18:47:43.688Z,101658.74
2019-04-22T18:50:24.679Z,101665.19
2019-04-22T18:53:03.615Z,101666.86
2019-04-22T18:55:30.869Z,101668.11
2019-04-22T18:58:02.651Z,101669.31
2019-04-22T19:00:27.512Z,101678.84
2019-04-22T19:03:05.274Z,101677.89
2019-04-22T19:05:45.064Z,101680.02
2019-04-22T19:08:26.353Z,101678.20
2019-04-22T19:11:00.715Z,101678.11
2019-04-22T19:16:20.560Z,101682.77
2019-04-22T19:18:29.947Z,101687.02
2019-04-22T19:20:57.744Z,101686.09
2019-04-22T19:23:28.687Z,101683.38
2019-04-22T19:25:52.330Z,101685.06
2019-04-22T19:28:29.083Z,101686.73
2019-04-22T19:31:05.003Z,101687.54
2019-04-22T19:33:28.810Z,101685.33
2019-04-22T19:35:55.210Z,101689.14
2019-04-22T19:38:16.435Z,101688.64
2019-04-22T19:43:30.825Z,101680.23
2019-04-22T19:45:55.741Z,101685.34
2019-04-22T19:48:54.676Z,101688.31
2019-04-22T19:51:15.724Z,101683.89
2019-04-22T19:53:47.110Z,101680.34
2019-04-22T19:56:07.186Z,101683.30
2019-04-22T19:58:37.265Z,101682.36
2019-04-22T20:01:20.656Z,101689.67
2019-04-22T20:04:08.729Z,101685.23
2019-04-22T20:06:41.352Z,101676.90
2019-04-22T20:09:13.953Z,101679.03
2019-04-22T20:11:38.648Z,101682.42
2019-04-22T20:14:19.807Z,101676.73
2019-04-22T20:16:43.811Z,101677.09
2019-04-22T20:19:31.874Z,101679.18
2019-04-22T20:21:51.255Z,101679.96
2019-04-22T20:24:12.297Z,101668.97
2019-04-22T20:26:56.584Z,101668.05
2019-04-22T20:29:32.925Z,101664.05
2019-04-22T20:31:53.088Z,101663.05
2019-04-22T20:34:23.987Z,101661.70
2019-04-22T20:39:33.496Z,101659.34
2019-04-22T20:42:05.651Z,101662.70
2019-04-22T20:44:29.479Z,101660.44
2019-04-22T20:46:56.180Z,101662.12
2019-04-22T20:49:30.887Z,101655.51
2019-04-22T20:52:24.047Z,101655.38
2019-04-22T20:54:32.519Z,101658.36
2019-04-22T20:56:56.406Z,101656.53
2019-04-22T20:59:28.162Z,101657.78
2019-04-22T21:02:00.664Z,101652.95
2019-04-22T21:04:22.173Z,101652.42
2019-04-22T21:07:00.900Z,101654.49
2019-04-22T21:09:35.550Z,101625.94
2019-04-22T21:11:56.557Z,101647.44
2019-04-22T21:14:23.250Z,101650.82
2019-04-22T21:17:00.709Z,101580.08
2019-04-22T21:19:40.230Z,101648.53
2019-04-22T21:22:06.014Z,101645.41
2019-04-22T21:24:32.905Z,101644.00
2019-04-22T21:27:10.158Z,101646.05
2019-04-22T21:29:34.719Z,101642.52
2019-04-22T21:32:09.042Z,101639.00
2019-04-22T21:34:43.653Z,101637.59
2019-04-22T21:37:14.044Z,101635.81
2019-04-22T21:39:36.623Z,101637.06
2019-04-22T21:42:12.734Z,101639.66
2019-04-22T21:44:38.124Z,101631.80
2019-04-22T21:47:14.693Z,101632.23
2019-04-22T21:49:45.891Z,101631.80
2019-04-22T21:52:13.508Z,101629.67
2019-04-22T21:54:47.042Z,101630.61
2019-04-22T21:57:26.571Z,101629.84
2019-04-22T21:59:57.941Z,101622.58
2019-04-22T22:02:28.139Z,101615.31
2019-04-22T22:04:52.991Z,101622.36
2019-04-22T22:07:13.632Z,101615.95
2019-04-22T22:09:54.254Z,101613.01
2019-04-22T22:12:24.659Z,101610.89
2019-04-22T22:14:57.670Z,101604.87
2019-04-22T22:17:25.278Z,101599.66
2019-04-22T22:19:54.422Z,101600.97
2019-04-22T22:22:41.791Z,101598.37
2019-04-22T22:25:00.035Z,101597.50
2019-04-22T22:27:30.073Z,101604.88
2019-04-22T22:30:24.884Z,101597.88
2019-04-22T22:32:30.017Z,101599.17
2019-04-22T22:35:03.847Z,101601.30
2019-04-22T22:37:22.049Z,101597.78
2019-04-22T22:39:52.883Z,101603.41
2019-04-22T22:42:23.801Z,101602.06
2019-04-22T22:44:47.760Z,101601.16
2019-04-22T22:47:31.893Z,101599.41
2019-04-22T22:50:03.021Z,101597.23
2019-04-22T22:55:06.972Z,101595.02
2019-04-22T22:57:46.476Z,101600.66
2019-04-22T22:59:58.663Z,101601.48
2019-04-22T23:02:36.913Z,101594.97
2019-04-22T23:05:04.041Z,101594.92
2019-04-22T23:07:38.982Z,101599.21
2019-04-22T23:10:10.065Z,101592.22
2019-04-22T23:12:46.316Z,101587.02
2019-04-22T23:15:04.658Z,101580.88
2019-04-22T23:17:21.410Z,101591.25
2019-04-22T23:19:51.642Z,101588.20
2019-04-22T23:22:22.975Z,101582.91
2019-04-22T23:25:14.970Z,101580.30
2019-04-22T23:27:38.756Z,101582.86
2019-04-22T23:30:06.531Z,101578.47
2019-04-22T23:32:42.350Z,101584.05
2019-04-22T23:35:22.931Z,101583.17
2019-04-22T23:37:52.362Z,101578.73
2019-04-22T23:40:33.158Z,101582.59
2019-04-22T23:43:00.249Z,101484.28
2019-04-22T23:45:34.876Z,101581.28
2019-04-22T23:48:00.925Z,101576.46
2019-04-22T23:50:37.550Z,101571.64
2019-04-22T23:53:10.081Z,101572.88
2019-04-22T23:55:45.022Z,101577.59
2019-04-22T23:58:21.098Z,101568.44
